createdAt,value
2022-10-18T00:00:51.202Z,999.71
2022-10-18T00:01:51.301Z,999.68
2022-10-18T00:02:51.271Z,999.66
2022-10-18T00:03:51.306Z,999.62
2022-10-18T00:04:51.338Z,999.58
2022-10-18T00:05:51.369Z,999.57
2022-10-18T00:06:51.403Z,999.55
2022-10-18T00:07:51.437Z,999.55
2022-10-18T00:08:51.471Z,999.54
2022-10-18T00:09:51.505Z,999.57
2022-10-18T00:10:51.536Z,999.54
2022-10-18T00:11:51.568Z,999.52
2022-10-18T00:12:51.906Z,999.57
2022-10-18T00:13:51.638Z,999.51
2022-10-18T00:14:51.670Z,999.46
2022-10-18T00:15:51.703Z,999.46
2022-10-18T00:16:51.735Z,999.45
2022-10-18T00:17:51.769Z,999.43
2022-10-18T00:18:51.803Z,999.39
2022-10-18T00:19:51.835Z,999.41
2022-10-18T00:20:51.879Z,999.38
2022-10-18T00:21:51.903Z,999.34
2022-10-18T00:22:51.938Z,999.31
2022-10-18T00:23:51.970Z,999.33
2022-10-18T00:24:52.002Z,999.29
2022-10-18T00:25:52.038Z,999.28
2022-10-18T00:26:52.071Z,999.28
2022-10-18T00:27:52.102Z,999.28
2022-10-18T00:28:52.242Z,999.29
2022-10-18T00:29:52.170Z,999.33
2022-10-18T00:30:52.206Z,999.24
2022-10-18T00:31:52.236Z,999.27
2022-10-18T00:32:52.272Z,999.25
2022-10-18T00:33:52.305Z,999.26
2022-10-18T00:34:52.338Z,999.24
2022-10-18T00:35:52.370Z,999.29
2022-10-18T00:36:52.405Z,999.26
2022-10-18T00:37:52.437Z,999.26
2022-10-18T00:38:52.471Z,999.28
2022-10-18T00:40:52.537Z,999.25
2022-10-18T00:41:52.576Z,999.24
2022-10-18T00:42:52.606Z,999.20
2022-10-18T00:43:52.637Z,999.17
2022-10-18T00:44:52.695Z,999.17
2022-10-18T00:45:52.705Z,999.15
2022-10-18T00:46:52.745Z,999.12
2022-10-18T00:47:52.770Z,999.12
2022-10-18T00:49:52.851Z,999.07
2022-10-18T00:50:52.871Z,999.07
2022-10-18T00:51:52.903Z,999.00
2022-10-18T00:52:52.937Z,999.04
2022-10-18T00:53:52.993Z,999.01
2022-10-18T00:54:53.010Z,998.99
2022-10-18T00:55:53.038Z,998.97
2022-10-18T00:56:53.078Z,998.95
2022-10-18T00:58:53.143Z,998.86
2022-10-18T00:59:53.175Z,998.83
2022-10-18T01:00:53.239Z,998.82
2022-10-18T01:01:53.254Z,998.83
2022-10-18T01:02:53.271Z,998.80
2022-10-18T01:03:53.304Z,998.79
2022-10-18T01:04:53.338Z,998.76
2022-10-18T01:05:53.371Z,998.75
2022-10-18T01:06:53.449Z,998.69
2022-10-18T01:07:53.438Z,998.67
2022-10-18T01:08:53.471Z,998.67
2022-10-18T01:09:53.504Z,998.70
2022-10-18T01:10:53.538Z,998.71
2022-10-18T01:11:53.570Z,998.74
2022-10-18T01:12:53.604Z,998.77
2022-10-18T01:13:53.639Z,998.75
2022-10-18T01:14:53.673Z,998.81
2022-10-18T01:15:53.757Z,998.77
2022-10-18T01:16:53.762Z,998.80
2022-10-18T01:17:53.773Z,998.79
2022-10-18T01:18:53.804Z,998.81
2022-10-18T01:19:53.837Z,998.81
2022-10-18T01:20:53.871Z,998.83
2022-10-18T01:21:53.905Z,998.83
2022-10-18T01:22:53.940Z,998.83
2022-10-18T01:23:53.971Z,998.80
2022-10-18T01:24:54.034Z,998.80
2022-10-18T01:25:54.039Z,998.81
2022-10-18T01:26:54.073Z,998.80
2022-10-18T01:27:54.106Z,998.83
2022-10-18T01:28:54.214Z,998.80
2022-10-18T01:29:54.173Z,998.80
2022-10-18T01:30:54.205Z,998.78
2022-10-18T01:31:56.382Z,998.76
2022-10-18T01:32:54.296Z,998.77
2022-10-18T01:33:54.347Z,998.80
2022-10-18T01:34:54.338Z,998.78
2022-10-18T01:35:54.372Z,998.80
2022-10-18T01:36:54.408Z,998.85
2022-10-18T01:37:54.439Z,998.86
2022-10-18T01:38:54.491Z,998.87
2022-10-18T01:39:54.504Z,998.86
2022-10-18T01:40:54.539Z,998.87
2022-10-18T01:41:54.575Z,998.84
2022-10-18T01:42:54.661Z,998.85
2022-10-18T01:43:54.637Z,998.82
2022-10-18T01:44:54.674Z,998.83
2022-10-18T01:45:54.711Z,998.86
2022-10-18T01:46:54.739Z,998.80
2022-10-18T01:47:54.795Z,998.81
2022-10-18T01:48:54.832Z,998.75
2022-10-18T01:49:54.839Z,998.76
2022-10-18T01:50:54.872Z,998.79
2022-10-18T01:51:54.987Z,998.75
2022-10-18T01:52:54.941Z,998.77
2022-10-18T01:53:54.973Z,998.76
2022-10-18T01:54:55.049Z,998.76
2022-10-18T01:55:55.039Z,998.77
2022-10-18T01:56:55.074Z,998.72
2022-10-18T01:57:55.108Z,998.74
2022-10-18T01:58:55.143Z,998.73
2022-10-18T01:59:55.172Z,998.72
2022-10-18T02:00:55.207Z,998.68
2022-10-18T02:01:55.240Z,998.63
2022-10-18T02:02:55.276Z,998.63
2022-10-18T02:03:55.305Z,998.65
2022-10-18T02:04:55.365Z,998.60
2022-10-18T02:05:55.373Z,998.56
2022-10-18T02:06:55.407Z,998.53
2022-10-18T02:08:05.819Z,998.53
2022-10-18T02:08:55.474Z,998.51
2022-10-18T02:09:55.507Z,998.51
2022-10-18T02:10:55.541Z,998.45
2022-10-18T02:11:55.573Z,998.50
2022-10-18T02:12:55.606Z,998.52
2022-10-18T02:13:55.640Z,998.52
2022-10-18T02:14:55.675Z,998.51
2022-10-18T02:15:55.708Z,998.52
2022-10-18T02:16:55.740Z,998.52
2022-10-18T02:17:55.774Z,998.49
2022-10-18T02:18:55.809Z,998.46
2022-10-18T02:19:55.843Z,998.42
2022-10-18T02:20:55.899Z,998.37
2022-10-18T02:21:55.907Z,998.34
2022-10-18T02:22:55.944Z,998.27
2022-10-18T02:23:55.974Z,998.27
2022-10-18T02:24:56.008Z,998.19
2022-10-18T02:25:56.042Z,998.16
2022-10-18T02:26:56.078Z,998.16
2022-10-18T02:27:56.108Z,998.11
2022-10-18T02:28:56.141Z,998.12
2022-10-18T02:29:56.176Z,998.09
2022-10-18T02:30:56.208Z,998.08
2022-10-18T02:31:56.241Z,998.06
2022-10-18T02:32:56.276Z,998.06
2022-10-18T02:33:56.309Z,998.05
2022-10-18T02:34:56.343Z,998.00
2022-10-18T02:35:56.375Z,998.06
2022-10-18T02:36:56.432Z,998.00
2022-10-18T02:37:56.441Z,997.97
2022-10-18T02:38:56.475Z,997.96
2022-10-18T02:39:56.509Z,997.96
2022-10-18T02:40:56.543Z,997.95
2022-10-18T02:41:56.578Z,997.93
2022-10-18T02:42:56.608Z,997.95
2022-10-18T02:43:56.644Z,997.95
2022-10-18T02:44:56.675Z,997.96
2022-10-18T02:45:56.709Z,997.93
2022-10-18T02:46:56.743Z,997.95
2022-10-18T02:47:56.779Z,997.98
2022-10-18T02:48:56.810Z,997.94
2022-10-18T02:49:56.842Z,997.96
2022-10-18T02:50:56.876Z,997.98
2022-10-18T02:51:56.908Z,997.93
2022-10-18T02:52:56.966Z,997.92
2022-10-18T02:53:56.976Z,997.92
2022-10-18T02:54:57.011Z,997.91
2022-10-18T02:55:57.042Z,997.86
2022-10-18T02:56:57.075Z,997.85
2022-10-18T02:57:57.109Z,997.82
2022-10-18T02:58:57.143Z,997.79
2022-10-18T02:59:57.177Z,997.82
2022-10-18T03:00:57.209Z,997.77
2022-10-18T03:01:57.315Z,997.77
2022-10-18T03:02:57.277Z,997.76
2022-10-18T03:03:57.309Z,997.77
2022-10-18T03:04:57.344Z,997.77
2022-10-18T03:05:57.377Z,997.79
2022-10-18T03:06:57.410Z,997.79
2022-10-18T03:07:57.443Z,997.80
2022-10-18T03:08:57.501Z,997.84
2022-10-18T03:09:57.511Z,997.84
2022-10-18T03:10:57.545Z,997.87
2022-10-18T03:11:57.576Z,997.89
2022-10-18T03:12:57.610Z,997.94
2022-10-18T03:13:57.644Z,997.94
2022-10-18T03:14:57.677Z,997.94
2022-10-18T03:15:57.711Z,997.92
2022-10-18T03:16:57.743Z,997.94
2022-10-18T03:17:57.777Z,997.96
2022-10-18T03:18:57.811Z,997.98
2022-10-18T03:19:57.843Z,997.95
2022-10-18T03:20:57.878Z,997.96
2022-10-18T03:21:57.910Z,997.94
2022-10-18T03:22:57.945Z,997.91
2022-10-18T03:23:57.979Z,997.94
2022-10-18T03:24:58.037Z,997.89
2022-10-18T03:25:58.045Z,997.91
2022-10-18T03:26:58.078Z,997.87
2022-10-18T03:27:58.112Z,997.85
2022-10-18T03:28:58.206Z,997.83
2022-10-18T03:29:58.178Z,997.85
2022-10-18T03:30:58.213Z,997.83
2022-10-18T03:31:58.245Z,997.83
2022-10-18T03:32:58.278Z,997.76
2022-10-18T03:33:58.313Z,997.76
2022-10-18T03:34:58.347Z,997.71
2022-10-18T03:35:58.383Z,997.66
2022-10-18T03:37:02.053Z,997.68
2022-10-18T03:37:58.444Z,997.68
2022-10-18T03:38:58.478Z,997.66
2022-10-18T03:39:58.511Z,997.68
2022-10-18T03:40:58.572Z,997.69
2022-10-18T03:41:58.577Z,997.67
2022-10-18T03:42:58.614Z,997.67
2022-10-18T03:43:58.645Z,997.67
2022-10-18T03:44:58.678Z,997.67
2022-10-18T03:45:58.715Z,997.69
2022-10-18T03:46:58.747Z,997.67
2022-10-18T03:47:58.777Z,997.70
2022-10-18T03:48:58.814Z,997.71
2022-10-18T03:49:58.846Z,997.75
2022-10-18T03:50:58.879Z,997.76
2022-10-18T03:51:58.912Z,997.76
2022-10-18T03:52:58.945Z,997.76
2022-10-18T03:53:58.980Z,997.76
2022-10-18T03:54:59.015Z,997.74
2022-10-18T03:55:59.047Z,997.76
2022-10-18T03:56:59.105Z,997.75
2022-10-18T03:57:59.112Z,997.74
2022-10-18T03:58:59.146Z,997.75
2022-10-18T03:59:59.179Z,997.79
2022-10-18T04:00:59.213Z,997.75
2022-10-18T04:01:59.357Z,997.75
2022-10-18T04:02:59.283Z,997.76
2022-10-18T04:03:59.312Z,997.70
2022-10-18T04:04:59.347Z,997.70
2022-10-18T04:05:59.380Z,997.70
2022-10-18T04:06:59.414Z,997.71
2022-10-18T04:07:59.446Z,997.69
2022-10-18T04:08:59.479Z,997.67
2022-10-18T04:09:59.513Z,997.64
2022-10-18T04:10:59.550Z,997.64
2022-10-18T04:11:59.580Z,997.64
2022-10-18T04:12:59.642Z,997.65
2022-10-18T04:13:59.648Z,997.64
2022-10-18T04:14:59.683Z,997.65
2022-10-18T04:15:59.713Z,997.64
2022-10-18T04:16:59.749Z,997.61
2022-10-18T04:17:59.788Z,997.64
2022-10-18T04:18:59.815Z,997.58
2022-10-18T04:19:59.846Z,997.60
2022-10-18T04:20:59.880Z,997.59
2022-10-18T04:21:59.915Z,997.59
2022-10-18T04:22:59.949Z,997.55
2022-10-18T04:23:59.979Z,997.50
2022-10-18T04:25:00.015Z,997.56
2022-10-18T04:26:00.047Z,997.54
2022-10-18T04:27:00.092Z,997.54
2022-10-18T04:28:00.114Z,997.57
2022-10-18T04:29:00.315Z,997.61
2022-10-18T04:30:00.183Z,997.64
2022-10-18T04:31:00.240Z,997.64
2022-10-18T04:32:00.247Z,997.64
2022-10-18T04:33:00.283Z,997.64
2022-10-18T04:34:00.315Z,997.67
2022-10-18T04:35:00.349Z,997.69
2022-10-18T04:36:00.381Z,997.69
2022-10-18T04:37:00.414Z,997.71
2022-10-18T04:38:00.450Z,997.75
2022-10-18T04:39:00.509Z,997.76
2022-10-18T04:40:00.519Z,997.75
2022-10-18T04:41:00.549Z,997.76
2022-10-18T04:42:00.582Z,997.74
2022-10-18T04:43:00.616Z,997.71
2022-10-18T04:44:00.649Z,997.70
2022-10-18T04:45:00.682Z,997.74
2022-10-18T04:46:00.715Z,997.73
2022-10-18T04:47:00.774Z,997.77
2022-10-18T04:48:00.782Z,997.76
2022-10-18T04:49:00.818Z,997.77
2022-10-18T04:50:00.851Z,997.80
2022-10-18T04:51:00.882Z,997.78
2022-10-18T04:52:00.915Z,997.72
2022-10-18T04:53:00.950Z,997.69
2022-10-18T04:54:00.984Z,997.67
2022-10-18T04:55:01.016Z,997.68
2022-10-18T04:56:01.049Z,997.67
2022-10-18T04:57:01.083Z,997.66
2022-10-18T04:58:01.116Z,997.70
2022-10-18T04:59:01.150Z,997.71
2022-10-18T05:00:01.182Z,997.69
2022-10-18T05:01:01.216Z,997.69
2022-10-18T05:02:01.297Z,997.70
2022-10-18T05:03:01.308Z,997.69
2022-10-18T05:04:01.318Z,997.69
2022-10-18T05:05:01.358Z,997.70
2022-10-18T05:06:03.140Z,997.67
2022-10-18T05:07:01.416Z,997.70
2022-10-18T05:08:01.449Z,997.65
2022-10-18T05:09:01.483Z,997.62
2022-10-18T05:10:01.517Z,997.62
2022-10-18T05:11:01.628Z,997.61
2022-10-18T05:12:01.583Z,997.62
2022-10-18T05:13:01.616Z,997.62
2022-10-18T05:14:01.651Z,997.62
2022-10-18T05:15:01.684Z,997.62
2022-10-18T05:16:01.720Z,997.66
2022-10-18T05:17:01.749Z,997.66
2022-10-18T05:18:01.784Z,997.63
2022-10-18T05:19:01.841Z,997.65
2022-10-18T05:20:01.939Z,997.62
2022-10-18T05:21:01.884Z,997.64
2022-10-18T05:22:01.918Z,997.62
2022-10-18T05:23:01.953Z,997.64
2022-10-18T05:24:01.987Z,997.66
2022-10-18T05:25:02.027Z,997.66
2022-10-18T05:26:02.052Z,997.63
2022-10-18T05:27:02.085Z,997.63
2022-10-18T05:28:10.517Z,997.64
2022-10-18T05:29:02.269Z,997.65
2022-10-18T05:30:05.364Z,997.65
2022-10-18T05:31:02.218Z,997.63
2022-10-18T05:32:02.251Z,997.62
2022-10-18T05:33:02.284Z,997.65
2022-10-18T05:34:02.319Z,997.64
2022-10-18T05:35:02.380Z,997.58
2022-10-18T05:36:02.389Z,997.64
2022-10-18T05:37:02.418Z,997.60
2022-10-18T05:38:02.452Z,997.59
2022-10-18T05:39:04.867Z,997.60
2022-10-18T05:40:02.517Z,997.66
2022-10-18T05:41:02.551Z,997.62
2022-10-18T05:42:02.585Z,997.65
2022-10-18T05:43:02.620Z,997.63
2022-10-18T05:44:02.651Z,997.66
2022-10-18T05:45:02.686Z,997.68
2022-10-18T05:46:02.719Z,997.68
2022-10-18T05:47:02.752Z,997.71
2022-10-18T05:48:02.785Z,997.74
2022-10-18T05:49:02.822Z,997.72
2022-10-18T05:50:02.853Z,997.76
2022-10-18T05:51:02.913Z,997.80
2022-10-18T05:52:02.918Z,997.74
2022-10-18T05:53:11.951Z,997.77
2022-10-18T05:54:02.986Z,997.76
2022-10-18T05:55:03.020Z,997.76
2022-10-18T05:56:03.054Z,997.78
2022-10-18T05:57:03.085Z,997.77
2022-10-18T05:58:03.119Z,997.73
2022-10-18T05:59:03.152Z,997.76
2022-10-18T06:00:03.185Z,997.76
2022-10-18T06:01:03.219Z,997.78
2022-10-18T06:02:03.253Z,997.77
2022-10-18T06:03:03.287Z,997.80
2022-10-18T06:04:03.321Z,997.75
2022-10-18T06:05:03.354Z,997.75
2022-10-18T06:06:03.404Z,997.73
2022-10-18T06:07:03.446Z,997.76
2022-10-18T06:08:06.474Z,997.74
2022-10-18T06:09:03.494Z,997.73
2022-10-18T06:10:03.520Z,997.80
2022-10-18T06:11:03.553Z,997.78
2022-10-18T06:12:03.590Z,997.80
2022-10-18T06:13:03.625Z,997.80
2022-10-18T06:14:03.653Z,997.79
2022-10-18T06:15:03.687Z,997.79
2022-10-18T06:16:03.720Z,997.81
2022-10-18T06:17:03.753Z,997.76
2022-10-18T06:18:03.786Z,997.77
2022-10-18T06:19:03.827Z,997.74
2022-10-18T06:20:03.853Z,997.76
2022-10-18T06:21:03.893Z,997.73
2022-10-18T06:22:03.922Z,997.74
2022-10-18T06:23:03.977Z,997.75
2022-10-18T06:24:04.003Z,997.76
2022-10-18T06:25:04.020Z,997.71
2022-10-18T06:26:04.054Z,997.75
2022-10-18T06:28:05.960Z,997.73
2022-10-18T06:29:04.238Z,997.75
2022-10-18T06:30:04.187Z,997.77
2022-10-18T06:31:04.221Z,997.81
2022-10-18T06:32:04.255Z,997.79
2022-10-18T06:33:04.286Z,997.82
2022-10-18T06:34:04.321Z,997.79
2022-10-18T06:35:04.356Z,997.80
2022-10-18T06:36:04.388Z,997.80
2022-10-18T06:37:04.421Z,997.80
2022-10-18T06:38:04.455Z,997.83
2022-10-18T06:39:04.511Z,997.84
2022-10-18T06:40:04.521Z,997.82
2022-10-18T06:41:04.555Z,997.83
2022-10-18T06:42:04.589Z,997.82
2022-10-18T06:43:19.599Z,997.81
2022-10-18T06:44:04.654Z,997.78
2022-10-18T06:45:04.689Z,997.80
2022-10-18T06:46:04.727Z,997.82
2022-10-18T06:47:04.755Z,997.81
2022-10-18T06:48:04.788Z,997.82
2022-10-18T06:49:04.822Z,997.85
2022-10-18T06:50:04.855Z,997.87
2022-10-18T06:51:04.888Z,997.87
2022-10-18T06:52:04.921Z,997.87
2022-10-18T06:53:04.955Z,997.89
2022-10-18T06:54:17.283Z,997.93
2022-10-18T06:55:09.011Z,997.94
2022-10-18T06:56:05.055Z,997.94
2022-10-18T06:57:05.090Z,997.95
2022-10-18T06:58:05.122Z,997.96
2022-10-18T06:59:05.159Z,997.96
2022-10-18T07:00:05.190Z,997.97
2022-10-18T07:01:05.223Z,997.96
2022-10-18T07:02:05.351Z,997.98
2022-10-18T07:03:05.290Z,997.96
2022-10-18T07:04:05.325Z,997.97
2022-10-18T07:05:05.356Z,997.97
2022-10-18T07:06:05.392Z,997.95
2022-10-18T07:07:05.423Z,997.97
2022-10-18T07:08:05.457Z,997.98
2022-10-18T07:09:05.493Z,997.98
2022-10-18T07:10:05.530Z,997.98
2022-10-18T07:11:05.581Z,998.04
2022-10-18T07:12:05.592Z,998.03
2022-10-18T07:13:31.103Z,998.04
2022-10-18T07:14:05.659Z,998.05
2022-10-18T07:15:09.358Z,998.05
2022-10-18T07:16:05.874Z,998.09
2022-10-18T07:17:05.782Z,998.06
2022-10-18T07:18:05.811Z,998.10
2022-10-18T07:19:05.827Z,998.12
2022-10-18T07:20:05.857Z,998.17
2022-10-18T07:21:05.891Z,998.18
2022-10-18T07:22:05.932Z,998.17
2022-10-18T07:23:05.958Z,998.17
2022-10-18T07:24:05.990Z,998.21
2022-10-18T07:25:06.026Z,998.21
2022-10-18T07:26:06.060Z,998.26
2022-10-18T07:27:06.116Z,998.30
2022-10-18T07:28:06.124Z,998.29
2022-10-18T07:29:06.235Z,998.27
2022-10-18T07:30:06.191Z,998.26
2022-10-18T07:31:06.417Z,998.26
2022-10-18T07:32:06.257Z,998.29
2022-10-18T07:33:06.290Z,998.27
2022-10-18T07:34:06.327Z,998.24
2022-10-18T07:35:06.433Z,998.25
2022-10-18T07:36:06.391Z,998.28
2022-10-18T07:37:06.428Z,998.29
2022-10-18T07:38:06.462Z,998.29
2022-10-18T07:39:06.491Z,998.32
2022-10-18T07:40:06.526Z,998.33
2022-10-18T07:41:06.559Z,998.32
2022-10-18T07:42:06.593Z,998.36
2022-10-18T07:43:10.206Z,998.34
2022-10-18T07:44:06.664Z,998.32
2022-10-18T07:45:06.691Z,998.30
2022-10-18T07:46:06.726Z,998.30
2022-10-18T07:47:06.759Z,998.29
2022-10-18T07:48:06.793Z,998.28
2022-10-18T07:49:06.830Z,998.27
2022-10-18T07:50:06.860Z,998.27
2022-10-18T07:51:06.892Z,998.28
2022-10-18T07:52:06.925Z,998.25
2022-10-18T07:53:06.960Z,998.25
2022-10-18T07:54:06.993Z,998.23
2022-10-18T07:55:07.026Z,998.21
2022-10-18T07:56:09.373Z,998.23
2022-10-18T07:57:07.092Z,998.28
2022-10-18T07:58:07.130Z,998.26
2022-10-18T07:59:07.183Z,998.24
2022-10-18T08:00:07.192Z,998.28
2022-10-18T08:01:07.284Z,998.27
2022-10-18T08:02:07.259Z,998.26
2022-10-18T08:03:07.293Z,998.23
2022-10-18T08:04:09.082Z,998.26
2022-10-18T08:05:07.360Z,998.27
2022-10-18T08:06:07.394Z,998.31
2022-10-18T08:07:07.426Z,998.32
2022-10-18T08:08:08.165Z,998.36
2022-10-18T08:09:07.492Z,998.38
2022-10-18T08:10:07.528Z,998.40
2022-10-18T08:11:07.561Z,998.40
2022-10-18T08:12:07.593Z,998.40
2022-10-18T08:13:07.627Z,998.36
2022-10-18T08:14:07.661Z,998.33
2022-10-18T08:15:07.717Z,998.31
2022-10-18T08:16:07.732Z,998.30
2022-10-18T08:17:07.760Z,998.29
2022-10-18T08:18:07.795Z,998.25
2022-10-18T08:19:07.828Z,998.29
2022-10-18T08:20:12.044Z,998.30
2022-10-18T08:21:07.893Z,998.33
2022-10-18T08:22:07.928Z,998.34
2022-10-18T08:23:07.962Z,998.33
2022-10-18T08:24:07.996Z,998.34
2022-10-18T08:25:08.029Z,998.35
2022-10-18T08:26:08.064Z,998.38
2022-10-18T08:27:08.095Z,998.36
2022-10-18T08:28:08.128Z,998.36
2022-10-18T08:29:22.930Z,998.38
2022-10-18T08:30:08.195Z,998.39
2022-10-18T08:31:08.254Z,998.41
2022-10-18T08:32:08.262Z,998.43
2022-10-18T08:33:08.296Z,998.41
2022-10-18T08:34:08.328Z,998.37
2022-10-18T08:35:09.379Z,998.37
2022-10-18T08:36:08.396Z,998.38
2022-10-18T08:37:08.432Z,998.38
2022-10-18T08:38:08.531Z,998.37
2022-10-18T08:39:08.507Z,998.41
2022-10-18T08:40:08.530Z,998.41
2022-10-18T08:41:08.563Z,998.44
2022-10-18T08:42:08.601Z,998.46
2022-10-18T08:43:08.633Z,998.41
2022-10-18T08:44:08.662Z,998.45
2022-10-18T08:45:17.774Z,998.45
2022-10-18T08:46:08.739Z,998.44
2022-10-18T08:47:08.790Z,998.44
2022-10-18T08:48:08.834Z,998.42
2022-10-18T08:49:08.830Z,998.43
2022-10-18T08:50:08.862Z,998.43
2022-10-18T08:51:08.899Z,998.43
2022-10-18T08:52:08.929Z,998.47
2022-10-18T08:53:08.964Z,998.45
2022-10-18T08:54:08.998Z,998.44
2022-10-18T08:55:09.030Z,998.43
2022-10-18T08:56:09.064Z,998.49
2022-10-18T08:57:09.097Z,998.46
2022-10-18T08:58:09.130Z,998.46
2022-10-18T08:59:09.164Z,998.46
2022-10-18T09:00:09.198Z,998.49
2022-10-18T09:01:09.230Z,998.48
2022-10-18T09:02:09.264Z,998.44
2022-10-18T09:03:09.473Z,998.46
2022-10-18T09:04:09.330Z,998.44
2022-10-18T09:05:09.363Z,998.45
2022-10-18T09:06:09.397Z,998.47
2022-10-18T09:07:09.446Z,998.41
2022-10-18T09:08:09.464Z,998.40
2022-10-18T09:09:09.500Z,998.39
2022-10-18T09:10:09.586Z,998.36
2022-10-18T09:11:09.565Z,998.38
2022-10-18T09:12:09.597Z,998.35
2022-10-18T09:13:09.633Z,998.41
2022-10-18T09:14:09.665Z,998.38
2022-10-18T09:15:09.698Z,998.42
2022-10-18T09:16:09.731Z,998.43
2022-10-18T09:17:15.001Z,998.46
2022-10-18T09:18:09.800Z,998.44
2022-10-18T09:19:09.858Z,998.48
2022-10-18T09:20:09.870Z,998.52
2022-10-18T09:21:09.899Z,998.48
2022-10-18T09:22:09.930Z,998.49
2022-10-18T09:23:09.965Z,998.49
2022-10-18T09:24:09.999Z,998.51
2022-10-18T09:25:10.032Z,998.49
2022-10-18T09:26:10.066Z,998.51
2022-10-18T09:27:10.099Z,998.45
2022-10-18T09:28:10.132Z,998.49
2022-10-18T09:29:10.311Z,998.48
2022-10-18T09:30:10.202Z,998.49
2022-10-18T09:31:10.232Z,998.47
2022-10-18T09:32:10.265Z,998.46
2022-10-18T09:33:10.299Z,998.49
2022-10-18T09:34:10.332Z,998.49
2022-10-18T09:35:10.390Z,998.54
2022-10-18T09:36:10.399Z,998.58
2022-10-18T09:37:10.431Z,998.57
2022-10-18T09:38:10.465Z,998.60
2022-10-18T09:39:10.500Z,998.56
2022-10-18T09:40:12.158Z,998.59
2022-10-18T09:41:10.565Z,998.60
2022-10-18T09:42:10.598Z,998.61
2022-10-18T09:43:10.633Z,998.59
2022-10-18T09:44:10.675Z,998.58
2022-10-18T09:45:10.699Z,998.62
2022-10-18T09:46:10.733Z,998.61
2022-10-18T09:47:14.609Z,998.64
2022-10-18T09:48:10.817Z,998.62
2022-10-18T09:49:13.025Z,998.65
2022-10-18T09:50:10.868Z,998.62
2022-10-18T09:51:10.929Z,998.64
2022-10-18T09:52:10.941Z,998.63
2022-10-18T09:53:10.972Z,998.67
2022-10-18T09:54:11.000Z,998.65
2022-10-18T09:55:11.035Z,998.66
2022-10-18T09:56:11.066Z,998.65
2022-10-18T09:57:11.103Z,998.66
2022-10-18T09:58:11.134Z,998.64
2022-10-18T09:59:11.169Z,998.69
2022-10-18T10:00:11.199Z,998.68
2022-10-18T10:01:11.234Z,998.70
2022-10-18T10:02:11.329Z,998.70
2022-10-18T10:03:11.303Z,998.68
2022-10-18T10:04:11.333Z,998.72
2022-10-18T10:06:11.402Z,998.69
2022-10-18T10:07:11.469Z,998.70
2022-10-18T10:08:11.469Z,998.72
2022-10-18T10:09:11.500Z,998.73
2022-10-18T10:10:11.534Z,998.71
2022-10-18T10:11:11.567Z,998.75
2022-10-18T10:12:11.604Z,998.73
2022-10-18T10:13:11.635Z,998.70
2022-10-18T10:14:11.724Z,998.72
2022-10-18T10:15:11.701Z,998.76
2022-10-18T10:16:11.734Z,998.74
2022-10-18T10:17:11.767Z,998.74
2022-10-18T10:18:11.801Z,998.73
2022-10-18T10:19:11.834Z,998.74
2022-10-18T10:20:11.869Z,998.74
2022-10-18T10:21:11.902Z,998.78
2022-10-18T10:22:11.934Z,998.75
2022-10-18T10:24:12.026Z,998.77
2022-10-18T10:25:12.035Z,998.78
2022-10-18T10:26:12.070Z,998.78
2022-10-18T10:27:12.101Z,998.79
2022-10-18T10:28:12.134Z,998.80
2022-10-18T10:29:17.444Z,998.82
2022-10-18T10:30:12.203Z,998.82
2022-10-18T10:31:12.236Z,998.84
2022-10-18T10:32:12.270Z,998.84
2022-10-18T10:33:12.301Z,998.87
2022-10-18T10:34:12.335Z,998.82
2022-10-18T10:35:21.677Z,998.83
2022-10-18T10:36:12.403Z,998.83
2022-10-18T10:37:12.435Z,998.87
2022-10-18T10:38:12.469Z,998.88
2022-10-18T10:39:12.501Z,998.83
2022-10-18T10:40:22.060Z,998.85
2022-10-18T10:41:12.569Z,998.80
2022-10-18T10:42:12.602Z,998.85
2022-10-18T10:43:25.099Z,998.85
2022-10-18T10:44:12.669Z,998.82
2022-10-18T10:45:12.704Z,998.87
2022-10-18T10:46:12.735Z,998.83
2022-10-18T10:47:12.770Z,998.84
2022-10-18T10:48:12.804Z,998.90
2022-10-18T10:49:38.503Z,998.88
2022-10-18T10:50:13.018Z,998.92
2022-10-18T10:51:12.902Z,998.91
2022-10-18T10:52:26.179Z,998.91
2022-10-18T10:53:12.970Z,998.92
2022-10-18T10:54:13.001Z,998.92
2022-10-18T10:55:35.706Z,998.92
2022-10-18T10:56:15.928Z,998.94
2022-10-18T10:57:13.103Z,998.95
2022-10-18T10:58:13.136Z,998.99
2022-10-18T10:59:13.221Z,998.97
2022-10-18T11:00:13.287Z,998.96
2022-10-18T11:01:13.237Z,998.98
2022-10-18T11:02:13.269Z,998.95
2022-10-18T11:03:27.954Z,998.94
2022-10-18T11:04:13.404Z,998.96
2022-10-18T11:05:13.369Z,998.98
2022-10-18T11:06:13.403Z,998.97
2022-10-18T11:07:13.436Z,998.95
2022-10-18T11:08:13.469Z,999.01
2022-10-18T11:09:13.506Z,998.99
2022-10-18T11:10:13.536Z,998.98
2022-10-18T11:11:13.569Z,999.03
2022-10-18T11:12:13.635Z,999.04
2022-10-18T11:13:13.636Z,999.07
2022-10-18T11:14:25.222Z,999.08
2022-10-18T11:15:13.709Z,999.06
2022-10-18T11:16:13.736Z,999.08
2022-10-18T11:17:13.768Z,999.01
2022-10-18T11:18:13.802Z,999.04
2022-10-18T11:19:13.836Z,999.07
2022-10-18T11:20:13.869Z,999.05
2022-10-18T11:21:13.903Z,999.07
2022-10-18T11:22:13.937Z,999.07
2022-10-18T11:23:13.969Z,999.11
2022-10-18T11:24:14.002Z,999.11
2022-10-18T11:25:14.038Z,999.11
2022-10-18T11:26:14.078Z,999.15
2022-10-18T11:27:14.102Z,999.16
2022-10-18T11:28:14.220Z,999.14
2022-10-18T11:29:14.172Z,999.15
2022-10-18T11:30:14.203Z,999.17
2022-10-18T11:31:14.241Z,999.16
2022-10-18T11:32:14.271Z,999.14
2022-10-18T11:33:14.304Z,999.15
2022-10-18T11:34:14.337Z,999.17
2022-10-18T11:35:14.370Z,999.14
2022-10-18T11:36:14.462Z,999.13
2022-10-18T11:37:28.119Z,999.18
2022-10-18T11:38:14.469Z,999.15
2022-10-18T11:39:14.504Z,999.19
2022-10-18T11:40:14.538Z,999.16
2022-10-18T11:41:14.571Z,999.14
2022-10-18T11:42:14.603Z,999.08
2022-10-18T11:43:14.637Z,999.09
2022-10-18T11:44:14.694Z,999.05
2022-10-18T11:45:14.702Z,999.04
2022-10-18T11:46:14.740Z,999.04
2022-10-18T11:47:14.772Z,999.10
2022-10-18T11:48:14.805Z,999.03
2022-10-18T11:49:14.837Z,999.04
2022-10-18T11:50:14.870Z,999.03
2022-10-18T11:51:14.904Z,999.04
2022-10-18T11:52:14.954Z,999.06
2022-10-18T11:53:14.970Z,999.10
2022-10-18T11:54:15.003Z,999.11
2022-10-18T11:55:15.037Z,999.17
2022-10-18T11:56:15.071Z,999.16
2022-10-18T11:57:15.103Z,999.16
2022-10-18T11:58:15.139Z,999.19
2022-10-18T11:59:15.171Z,999.15
2022-10-18T12:00:15.278Z,999.19
2022-10-18T12:01:15.238Z,999.23
2022-10-18T12:02:15.347Z,999.22
2022-10-18T12:03:15.317Z,999.23
2022-10-18T12:04:15.337Z,999.19
2022-10-18T12:05:23.967Z,999.19
2022-10-18T12:06:15.406Z,999.17
2022-10-18T12:07:15.438Z,999.20
2022-10-18T12:08:15.491Z,999.19
2022-10-18T12:09:15.503Z,999.19
2022-10-18T12:10:22.057Z,999.23
2022-10-18T12:11:15.571Z,999.21
2022-10-18T12:12:15.605Z,999.20
2022-10-18T12:13:15.639Z,999.20
2022-10-18T12:14:15.672Z,999.25
2022-10-18T12:15:15.706Z,999.24
2022-10-18T12:16:15.762Z,999.21
2022-10-18T12:17:40.702Z,999.20
2022-10-18T12:18:15.804Z,999.19
2022-10-18T12:19:15.839Z,999.23
2022-10-18T12:20:15.873Z,999.21
2022-10-18T12:21:15.904Z,999.25
2022-10-18T12:22:15.939Z,999.23
2022-10-18T12:23:15.973Z,999.23
2022-10-18T12:24:16.005Z,999.21
2022-10-18T12:25:16.039Z,999.21
2022-10-18T12:26:16.072Z,999.20
2022-10-18T12:27:16.104Z,999.24
2022-10-18T12:28:16.137Z,999.25
2022-10-18T12:29:16.171Z,999.34
2022-10-18T12:30:16.204Z,999.30
2022-10-18T12:31:16.238Z,999.27
2022-10-18T12:32:16.308Z,999.27
2022-10-18T12:33:27.931Z,999.28
2022-10-18T12:34:16.340Z,999.26
2022-10-18T12:35:16.373Z,999.32